Time;durP1;ratioP1;P1;durP2;ratioP2;P2;SDS_P1;SDS_P2;PMS_P1;PMS_P2;Temp;Humidity;BMP_temperature;BMP_pressure;BME280_temperature;BME280_humidity;BME280_pressure;Samples;Min_cycle;Max_cycle;Signal;HPM_P1;HPM_P2
2022/04/07 00:01:05;;;;;;;;;;;;;;;;;;5090546;28;20398;-44
2022/04/07 00:03:32;;;;;;;;;;;;;;;;;;5088232;28;19920;-45
2022/04/07 00:05:58;;;;;;;;;;;;;;;;;;5091722;28;19943;-48
2022/04/07 00:08:25;;;;;;;;;;;;;;;;;;5091571;28;19991;-46
2022/04/07 00:10:51;;;;;;;;;;;;;;;;;;5090751;28;19939;-49
2022/04/07 00:13:18;;;;;;;;;;;;;;;;;;5089527;28;19908;-44
2022/04/07 00:15:44;;;;;;;;;;;;;;;;;;5092491;28;20272;-52
2022/04/07 00:18:11;;;;;;;;;;;;;;;;;;5091875;28;19908;-50
2022/04/07 00:20:37;;;;;;;;;;;;;;;;;;5091065;28;19965;-49
2022/04/07 00:23:03;;;;;;;;;;;;;;;;;;5093256;28;19947;-55
2022/04/07 00:25:30;;;;;;;;;;;;;;;;;;5093042;28;19915;-52
2022/04/07 00:27:56;;;;;;;;;;;;;;;;;;5092052;28;19909;-54
2022/04/07 00:30:23;;;;;;;;;;;;;;;;;;5093049;28;19908;-52
2022/04/07 00:32:49;;;;;;;;;;;;;;;;;;5093299;28;20377;-47
2022/04/07 00:35:16;;;;;;;;;;;;;;;;;;5093681;28;19931;-52
2022/04/07 00:37:42;;;;;;;;;;;;;;;;;;5093694;28;19996;-51
2022/04/07 00:40:09;;;;;;;;;;;;;;;;;;5092410;28;20266;-44
2022/04/07 00:42:35;;;;;;;;;;;;;;;;;;5093251;28;20278;-54
2022/04/07 00:45:04;;;;;;;;;;;;;;;;;;5093524;28;19969;-50
2022/04/07 00:47:32;;;;;;;;;;;;;;;;;;5092031;28;19908;-47
2022/04/07 00:49:59;;;;;;;;;;;;;;;;;;5093005;28;20345;-50
2022/04/07 00:52:25;;;;;;;;;;;;;;;;;;5093261;28;19977;-46
2022/04/07 00:54:52;;;;;;;;;;;;;;;;;;5093161;28;19915;-51
2022/04/07 00:57:18;;;;;;;;;;;;;;;;;;5093220;28;19961;-48
2022/04/07 00:59:46;;;;;;;;;;;;;;;;;;5093388;28;19912;-51
2022/04/07 01:02:13;;;;;;;;;;;;;;;;;;5092966;28;20354;-49
2022/04/07 01:04:41;;;;;;;;;;;;;;;;;;5092744;28;19920;-53
2022/04/07 01:07:07;;;;;;;;;;;;;;;;;;5096456;28;19911;-47
2022/04/07 01:09:34;;;;;;;;;;;;;;;;;;5112894;28;19945;-52
2022/04/07 01:12:00;;;;;;;;;;;;;;;;;;5112954;28;19984;-50
2022/04/07 01:14:27;;;;;;;;;;;;;;;;;;5112562;28;19957;-46
2022/04/07 01:16:53;;;;;;;;;;;;;;;;;;5112194;28;20378;-48
2022/04/07 01:19:20;;;;;;;;;;;;;;;;;;5111674;28;19994;-46
2022/04/07 01:21:47;;;;;;;;;;;;;;;;;;5112444;27;20329;-45
2022/04/07 01:24:13;;;;;;;;;;;;;;;;;;5112542;28;20355;-49
2022/04/07 01:26:40;;;;;;;;;;;;;;;;;;5112985;28;19930;-43
2022/04/07 01:29:06;;;;;;;;;;;;;;;;;;5112774;28;20006;-47
2022/04/07 01:31:33;;;;;;;;;;;;;;;;;;5112763;28;19995;-43
2022/04/07 01:33:59;;;;;;;;;;;;;;;;;;5111608;28;19953;-49
2022/04/07 01:36:25;;;;;;;;;;;;;;;;;;5112370;28;19908;-47
2022/04/07 01:38:52;;;;;;;;;;;;;;;;;;5112948;28;20285;-47
2022/04/07 01:41:18;;;;;;;;;;;;;;;;;;5113072;28;19908;-52
2022/04/07 01:43:45;;;;;;;;;;;;;;;;;;5111702;28;19916;-52
2022/04/07 01:46:15;;;;;;;;;;;;;;;;;;5112379;28;19916;-49
2022/04/07 01:48:41;;;;;;;;;;;;;;;;;;5113202;28;19953;-45
2022/04/07 01:51:08;;;;;;;;;;;;;;;;;;5112515;28;19979;-44
2022/04/07 01:53:34;;;;;;;;;;;;;;;;;;5112040;28;20349;-41
2022/04/07 01:56:01;;;;;;;;;;;;;;;;;;5112663;28;19908;-48
2022/04/07 01:58:27;;;;;;;;;;;;;;;;;;5112742;28;20004;-46
2022/04/07 02:00:54;;;;;;;;;;;;;;;;;;5112800;28;20035;-45
2022/04/07 02:03:21;;;;;;;;;;;;;;;;;;5112282;28;20015;-42
2022/04/07 02:05:47;;;;;;;;;;;;;;;;;;5112575;28;19922;-45
2022/04/07 02:08:14;;;;;;;;;;;;;;;;;;5112786;28;19961;-45
2022/04/07 02:10:40;;;;;;;;;;;;;;;;;;5112619;28;19912;-46
2022/04/07 02:13:07;;;;;;;;;;;;;;;;;;5112539;28;19937;-46
2022/04/07 02:15:35;;;;;;;;;;;;;;;;;;5112593;28;19913;-43
2022/04/07 02:18:02;;;;;;;;;;;;;;;;;;5112324;28;20030;-42
2022/04/07 02:20:28;;;;;;;;;;;;;;;;;;5112536;28;20247;-41
2022/04/07 02:22:55;;;;;;;;;;;;;;;;;;5112032;28;19918;-52
2022/04/07 02:25:23;;;;;;;;;;;;;;;;;;5111626;28;19973;-45
2022/04/07 02:27:50;;;;;;;;;;;;;;;;;;5114459;28;20014;-46
2022/04/07 02:30:16;;;;;;;;;;;;;;;;;;5116273;28;19907;-46
2022/04/07 02:32:43;;;;;;;;;;;;;;;;;;5116237;28;19920;-46
2022/04/07 02:35:10;;;;;;;;;;;;;;;;;;5115502;28;19908;-49
2022/04/07 02:37:37;;;;;;;;;;;;;;;;;;5115996;28;19912;-42
2022/04/07 02:40:03;;;;;;;;;;;;;;;;;;5114696;28;19912;-41
2022/04/07 02:42:30;;;;;;;;;;;;;;;;;;5116099;28;20250;-54
2022/04/07 02:44:56;;;;;;;;;;;;;;;;;;5115545;28;19923;-40
2022/04/07 02:47:22;;;;;;;;;;;;;;;;;;5115753;28;19907;-43
2022/04/07 02:49:49;;;;;;;;;;;;;;;;;;5115883;28;20002;-47
2022/04/07 02:52:15;;;;;;;;;;;;;;;;;;5116310;28;19968;-52
2022/04/07 02:54:42;;;;;;;;;;;;;;;;;;5115526;28;19908;-53
2022/04/07 02:57:08;;;;;;;;;;;;;;;;;;5115525;28;19908;-46
2022/04/07 02:59:35;;;;;;;;;;;;;;;;;;5108083;28;19974;-51
2022/04/07 03:02:01;;;;;;;;;;;;;;;;;;5093917;28;20420;-49
2022/04/07 03:04:28;;;;;;;;;;;;;;;;;;5091889;28;19973;-53
2022/04/07 03:06:54;;;;;;;;;;;;;;;;;;5094933;28;19944;-47
2022/04/07 03:09:21;;;;;;;;;;;;;;;;;;5088185;28;20286;-49
2022/04/07 03:11:47;;;;;;;;;;;;;;;;;;5092272;28;20492;-49
2022/04/07 03:14:14;;;;;;;;;;;;;;;;;;5092336;28;20003;-55
2022/04/07 03:16:40;;;;;;;;;;;;;;;;;;5092734;28;19912;-55
2022/04/07 03:19:07;;;;;;;;;;;;;;;;;;5090532;28;19919;-45
2022/04/07 03:21:33;;;;;;;;;;;;;;;;;;5090873;28;19920;-43
2022/04/07 03:24:00;;;;;;;;;;;;;;;;;;5093053;28;19908;-46
2022/04/07 03:26:26;;;;;;;;;;;;;;;;;;5093188;28;20334;-43
2022/04/07 03:28:53;;;;;;;;;;;;;;;;;;5090134;28;20315;-47
2022/04/07 03:31:19;;;;;;;;;;;;;;;;;;5092063;28;19962;-44
2022/04/07 03:33:46;;;;;;;;;;;;;;;;;;5092725;28;19916;-46
2022/04/07 03:36:12;;;;;;;;;;;;;;;;;;5092344;28;19908;-54
2022/04/07 03:38:39;;;;;;;;;;;;;;;;;;5088671;28;19908;-49
2022/04/07 03:41:08;;;;;;;;;;;;;;;;;;5091570;28;19909;-43
2022/04/07 03:43:35;;;;;;;;;;;;;;;;;;5091640;28;19912;-43
2022/04/07 03:46:01;;;;;;;;;;;;;;;;;;5092341;28;20286;-46
2022/04/07 03:48:28;;;;;;;;;;;;;;;;;;5089554;28;19947;-49
2022/04/07 03:50:56;;;;;;;;;;;;;;;;;;5092143;28;20015;-46
2022/04/07 03:53:22;;;;;;;;;;;;;;;;;;5091677;28;20053;-46
2022/04/07 03:55:49;;;;;;;;;;;;;;;;;;5093607;28;20312;-53
2022/04/07 03:58:15;;;;;;;;;;;;;;;;;;5089333;28;20395;-48
2022/04/07 04:00:42;;;;;;;;;;;;;;;;;;5092042;28;20255;-39
2022/04/07 04:03:08;;;;;;;;;;;;;;;;;;5091535;28;20337;-46
2022/04/07 04:05:35;;;;;;;;;;;;;;;;;;5088959;28;19924;-44
2022/04/07 04:08:01;;;;;;;;;;;;;;;;;;5088790;28;19931;-45
2022/04/07 04:10:28;;;;;;;;;;;;;;;;;;5090294;28;20313;-43
2022/04/07 04:12:54;;;;;;;;;;;;;;;;;;5091729;28;19916;-41
2022/04/07 04:15:21;;;;;;;;;;;;;;;;;;5091658;28;19908;-45
2022/04/07 04:17:47;;;;;;;;;;;;;;;;;;5089546;28;19912;-39
2022/04/07 04:20:14;;;;;;;;;;;;;;;;;;5090175;28;19919;-47
2022/04/07 04:22:40;;;;;;;;;;;;;;;;;;5092313;28;20378;-40
2022/04/07 04:25:08;;;;;;;;;;;;;;;;;;5090837;28;19912;-40
2022/04/07 04:27:34;;;;;;;;;;;;;;;;;;5092632;28;19920;-43
2022/04/07 04:30:01;;;;;;;;;;;;;;;;;;5089432;28;20006;-42
2022/04/07 04:32:27;;;;;;;;;;;;;;;;;;5091832;28;19926;-50
2022/04/07 04:34:53;;;;;;;;;;;;;;;;;;5091653;28;19909;-41
2022/04/07 04:37:25;;;;;;;;;;;;;;;;;;5091799;28;19942;-40
2022/04/07 04:39:52;;;;;;;;;;;;;;;;;;5086673;28;19911;-43
2022/04/07 04:42:18;;;;;;;;;;;;;;;;;;5091278;28;19909;-48
2022/04/07 04:44:46;;;;;;;;;;;;;;;;;;5090961;28;20358;-43
2022/04/07 04:47:12;;;;;;;;;;;;;;;;;;5091431;28;20336;-46
2022/04/07 04:49:39;;;;;;;;;;;;;;;;;;5085699;28;19915;-40
2022/04/07 04:52:05;;;;;;;;;;;;;;;;;;5087937;28;19916;-47
2022/04/07 04:54:32;;;;;;;;;;;;;;;;;;5092042;28;20404;-48
2022/04/07 04:56:58;;;;;;;;;;;;;;;;;;5091909;28;19908;-55
2022/04/07 04:59:25;;;;;;;;;;;;;;;;;;5085515;28;19952;-40
2022/04/07 05:01:51;;;;;;;;;;;;;;;;;;5091817;28;19908;-43
2022/04/07 05:04:18;;;;;;;;;;;;;;;;;;5093465;28;20299;-46
2022/04/07 05:06:44;;;;;;;;;;;;;;;;;;5091099;28;19930;-40
2022/04/07 05:09:11;;;;;;;;;;;;;;;;;;5092484;28;19977;-42
2022/04/07 05:11:37;;;;;;;;;;;;;;;;;;5093236;28;19917;-43
2022/04/07 05:14:04;;;;;;;;;;;;;;;;;;5092773;28;19919;-45
2022/04/07 05:16:30;;;;;;;;;;;;;;;;;;5092871;28;20354;-40
2022/04/07 05:18:56;;;;;;;;;;;;;;;;;;5092752;28;20393;-50
2022/04/07 05:21:23;;;;;;;;;;;;;;;;;;5091522;28;20374;-44
2022/04/07 05:23:49;;;;;;;;;;;;;;;;;;5091796;28;19909;-54
2022/04/07 05:26:16;;;;;;;;;;;;;;;;;;5091055;28;19994;-53
2022/04/07 05:28:42;;;;;;;;;;;;;;;;;;5092367;28;19942;-57
2022/04/07 05:31:09;;;;;;;;;;;;;;;;;;5091666;28;19919;-49
2022/04/07 05:33:35;;;;;;;;;;;;;;;;;;5092177;28;20011;-52
2022/04/07 05:36:02;;;;;;;;;;;;;;;;;;5092372;28;19908;-46
2022/04/07 05:38:28;;;;;;;;;;;;;;;;;;5091853;28;19908;-50
2022/04/07 05:40:55;;;;;;;;;;;;;;;;;;5091904;28;20373;-51
2022/04/07 05:43:21;;;;;;;;;;;;;;;;;;5091777;28;19916;-48
2022/04/07 05:45:50;;;;;;;;;;;;;;;;;;5092217;28;19973;-43
2022/04/07 05:48:17;;;;;;;;;;;;;;;;;;5092321;28;19969;-49
2022/04/07 05:50:43;;;;;;;;;;;;;;;;;;5091586;28;19949;-47
2022/04/07 05:53:10;;;;;;;;;;;;;;;;;;5091651;28;20008;-54
2022/04/07 05:55:36;;;;;;;;;;;;;;;;;;5089888;28;19935;-47
2022/04/07 05:58:03;;;;;;;;;;;;;;;;;;5091935;28;19908;-43
2022/04/07 06:00:29;;;;;;;;;;;;;;;;;;5092027;28;20270;-46
2022/04/07 06:02:56;;;;;;;;;;;;;;;;;;5095229;28;19999;-59
2022/04/07 06:05:22;;;;;;;;;;;;;;;;;;5095572;28;19999;-55
2022/04/07 06:07:49;;;;;;;;;;;;;;;;;;5096236;28;19908;-51
2022/04/07 06:10:15;;;;;;;;;;;;;;;;;;5096515;28;19916;-56
2022/04/07 06:12:46;;;;;;;;;;;;;;;;;;5095714;28;20020;-47
2022/04/07 06:15:12;;;;;;;;;;;;;;;;;;5094357;28;19908;-53
2022/04/07 06:17:39;;;;;;;;;;;;;;;;;;5095606;28;19909;-44
2022/04/07 06:20:08;;;;;;;;;;;;;;;;;;5095460;28;20346;-49
2022/04/07 06:22:34;;;;;;;;;;;;;;;;;;5095412;28;19914;-47
2022/04/07 06:25:01;;;;;;;;;;;;;;;;;;5094304;28;19908;-53
2022/04/07 06:27:27;;;;;;;;;;;;;;;;;;5095249;28;19912;-48
2022/04/07 06:29:54;;;;;;;;;;;;;;;;;;5095542;28;19908;-49
2022/04/07 06:32:23;;;;;;;;;;;;;;;;;;5095205;28;19922;-48
2022/04/07 06:34:49;;;;;;;;;;;;;;;;;;5092214;28;20426;-52
2022/04/07 06:37:16;;;;;;;;;;;;;;;;;;5094165;28;19909;-46
2022/04/07 06:39:42;;;;;;;;;;;;;;;;;;5094949;28;19956;-48
2022/04/07 06:42:09;;;;;;;;;;;;;;;;;;5093681;28;19977;-55
2022/04/07 06:44:35;;;;;;;;;;;;;;;;;;5093134;28;19916;-41
2022/04/07 06:47:02;;;;;;;;;;;;;;;;;;5093283;28;19912;-52
2022/04/07 06:49:28;;;;;;;;;;;;;;;;;;5091658;28;19914;-46
2022/04/07 06:51:54;;;;;;;;;;;;;;;;;;5093697;28;19916;-41
2022/04/07 06:54:21;;;;;;;;;;;;;;;;;;5091668;28;20003;-42
2022/04/07 06:56:47;;;;;;;;;;;;;;;;;;5093988;28;20044;-46
2022/04/07 06:59:14;;;;;;;;;;;;;;;;;;5092344;28;19912;-51
2022/04/07 07:01:41;;;;;;;;;;;;;;;;;;5090720;28;19908;-46
2022/04/07 07:04:07;;;;;;;;;;;;;;;;;;5093760;28;20063;-51
2022/04/07 07:06:34;;;;;;;;;;;;;;;;;;5094857;28;20258;-53
2022/04/07 07:09:00;;;;;;;;;;;;;;;;;;5093478;28;20069;-45
2022/04/07 07:11:27;;;;;;;;;;;;;;;;;;5091353;28;20251;-51
2022/04/07 07:13:54;;;;;;;;;;;;;;;;;;5093712;28;19987;-41
2022/04/07 07:16:20;;;;;;;;;;;;;;;;;;5093473;28;19912;-46
2022/04/07 07:18:47;;;;;;;;;;;;;;;;;;5094720;28;20009;-47
2022/04/07 07:21:14;;;;;;;;;;;;;;;;;;5093049;28;20274;-48
2022/04/07 07:23:40;;;;;;;;;;;;;;;;;;5094208;28;20310;-46
2022/04/07 07:26:08;;;;;;;;;;;;;;;;;;5089957;28;20000;-57
2022/04/07 07:28:35;;;;;;;;;;;;;;;;;;5094305;28;19916;-47
2022/04/07 07:31:01;;;;;;;;;;;;;;;;;;5093092;28;19916;-49
2022/04/07 07:33:28;;;;;;;;;;;;;;;;;;5090755;28;20301;-51
2022/04/07 07:35:54;;;;;;;;;;;;;;;;;;5092599;28;20020;-50
2022/04/07 07:38:22;;;;;;;;;;;;;;;;;;5092635;28;19987;-51
2022/04/07 07:40:49;;;;;;;;;;;;;;;;;;5091889;28;19908;-45
2022/04/07 07:43:15;;;;;;;;;;;;;;;;;;5093340;28;20248;-50
2022/04/07 07:45:42;;;;;;;;;;;;;;;;;;5094558;28;19908;-46
2022/04/07 07:48:08;;;;;;;;;;;;;;;;;;5094103;28;20383;-45
2022/04/07 07:50:35;;;;;;;;;;;;;;;;;;5093563;28;19961;-44
2022/04/07 07:53:01;;;;;;;;;;;;;;;;;;5094174;28;20339;-43
2022/04/07 07:55:28;;;;;;;;;;;;;;;;;;5093891;28;20274;-42
2022/04/07 07:57:54;;;;;;;;;;;;;;;;;;5093923;28;19915;-40
2022/04/07 08:00:23;;;;;;;;;;;;;;;;;;5094047;28;19918;-41
2022/04/07 08:02:50;;;;;;;;;;;;;;;;;;5093360;28;19933;-46
2022/04/07 08:05:16;;;;;;;;;;;;;;;;;;5093037;28;20282;-43
2022/04/07 08:07:43;;;;;;;;;;;;;;;;;;5092190;28;19916;-45
2022/04/07 08:10:10;;;;;;;;;;;;;;;;;;5093663;28;19912;-39
2022/04/07 08:12:36;;;;;;;;;;;;;;;;;;5093749;28;19951;-50
2022/04/07 08:15:03;;;;;;;;;;;;;;;;;;5094212;28;19954;-42
2022/04/07 08:17:30;;;;;;;;;;;;;;;;;;5094302;28;19910;-48
2022/04/07 08:19:56;;;;;;;;;;;;;;;;;;5093908;28;19916;-54
2022/04/07 08:22:23;;;;;;;;;;;;;;;;;;5093349;28;20280;-56
2022/04/07 08:24:49;;;;;;;;;;;;;;;;;;5092655;28;19912;-53
2022/04/07 08:27:16;;;;;;;;;;;;;;;;;;5093127;28;19908;-47
2022/04/07 08:29:43;;;;;;;;;;;;;;;;;;5094058;28;19911;-55
2022/04/07 08:32:09;;;;;;;;;;;;;;;;;;5092837;28;20007;-53
2022/04/07 08:34:36;;;;;;;;;;;;;;;;;;5093353;28;19999;-50
2022/04/07 08:37:02;;;;;;;;;;;;;;;;;;5089630;28;19922;-51
2022/04/07 08:39:28;;;;;;;;;;;;;;;;;;5088088;28;20002;-44
2022/04/07 08:41:55;;;;;;;;;;;;;;;;;;5091946;28;19908;-42
2022/04/07 08:44:23;;;;;;;;;;;;;;;;;;5092497;28;19994;-54
2022/04/07 08:46:49;;;;;;;;;;;;;;;;;;5088875;28;19908;-43
2022/04/07 08:49:16;;;;;;;;;;;;;;;;;;5085506;28;19943;-40
2022/04/07 08:51:42;;;;;;;;;;;;;;;;;;5087563;28;20383;-61
2022/04/07 08:54:12;;;;;;;;;;;;;;;;;;5088933;28;19911;-49
2022/04/07 08:56:39;;;;;;;;;;;;;;;;;;5091949;28;19908;-52
2022/04/07 08:59:06;;;;;;;;;;;;;;;;;;5091769;28;19904;-48
2022/04/07 09:01:32;;;;;;;;;;;;;;;;;;5091312;28;20012;-44
2022/04/07 09:03:58;;;;;;;;;;;;;;;;;;5092034;28;19946;-45
2022/04/07 09:06:25;;;;;;;;;;;;;;;;;;5092206;28;19915;-47
2022/04/07 09:08:52;;;;;;;;;;;;;;;;;;5092100;28;19908;-42
2022/04/07 09:11:19;;;;;;;;;;;;;;;;;;5091919;28;19919;-46
2022/04/07 09:13:46;;;;;;;;;;;;;;;;;;5092279;28;20318;-43
2022/04/07 09:16:13;;;;;;;;;;;;;;;;;;5091210;28;19978;-47
2022/04/07 09:18:39;;;;;;;;;;;;;;;;;;5092456;28;19912;-53
2022/04/07 09:21:06;;;;;;;;;;;;;;;;;;5089328;28;19927;-49
2022/04/07 09:23:32;;;;;;;;;;;;;;;;;;5087771;28;19913;-49
2022/04/07 09:26:00;;;;;;;;;;;;;;;;;;5089701;28;19919;-47
2022/04/07 09:28:27;;;;;;;;;;;;;;;;;;5090796;28;19919;-42
2022/04/07 09:30:53;;;;;;;;;;;;;;;;;;5086812;28;20005;-48
2022/04/07 09:33:20;;;;;;;;;;;;;;;;;;5087938;28;19923;-49
2022/04/07 09:35:47;;;;;;;;;;;;;;;;;;5087364;28;19969;-46
2022/04/07 09:38:15;;;;;;;;;;;;;;;;;;5085928;28;19908;-39
2022/04/07 09:40:42;;;;;;;;;;;;;;;;;;5088117;28;19985;-48
2022/04/07 09:43:08;;;;;;;;;;;;;;;;;;5090131;28;19916;-46
2022/04/07 09:45:34;;;;;;;;;;;;;;;;;;5087560;28;19908;-50
2022/04/07 09:48:01;;;;;;;;;;;;;;;;;;5090934;28;19923;-48
2022/04/07 09:50:32;;;;;;;;;;;;;;;;;;5090005;28;19916;-46
2022/04/07 09:52:58;;;;;;;;;;;;;;;;;;5090442;28;19923;-45
2022/04/07 09:55:25;;;;;;;;;;;;;;;;;;5088868;28;19962;-48
2022/04/07 09:57:51;;;;;;;;;;;;;;;;;;5086894;28;19918;-50
2022/04/07 10:00:18;;;;;;;;;;;;;;;;;;5090833;28;19927;-47
2022/04/07 10:02:45;;;;;;;;;;;;;;;;;;5090912;28;19915;-50
2022/04/07 10:05:11;;;;;;;;;;;;;;;;;;5087223;28;20007;-50
2022/04/07 10:07:38;;;;;;;;;;;;;;;;;;5090159;28;19915;-49
2022/04/07 10:10:04;;;;;;;;;;;;;;;;;;5091291;28;20330;-53
2022/04/07 10:12:33;;;;;;;;;;;;;;;;;;5092457;28;19917;-59
2022/04/07 10:14:59;;;;;;;;;;;;;;;;;;5092110;28;19916;-58
2022/04/07 10:17:26;;;;;;;;;;;;;;;;;;5091718;28;19908;-56
2022/04/07 10:19:52;;;;;;;;;;;;;;;;;;5087374;28;19914;-57
2022/04/07 10:22:19;;;;;;;;;;;;;;;;;;5091694;28;19908;-58
2022/04/07 10:24:45;;;;;;;;;;;;;;;;;;5091258;28;19908;-57
2022/04/07 10:27:12;;;;;;;;;;;;;;;;;;5090216;28;19912;-54
2022/04/07 10:29:39;;;;;;;;;;;;;;;;;;5089861;28;19943;-53
2022/04/07 10:32:06;;;;;;;;;;;;;;;;;;5090463;28;20320;-55
2022/04/07 10:34:32;;;;;;;;;;;;;;;;;;5087070;28;20017;-40
2022/04/07 10:36:59;;;;;;;;;;;;;;;;;;5090367;28;20404;-51
2022/04/07 10:39:26;;;;;;;;;;;;;;;;;;5089615;28;19915;-43
2022/04/07 10:41:53;;;;;;;;;;;;;;;;;;5089197;28;19907;-58
2022/04/07 10:44:19;;;;;;;;;;;;;;;;;;5087266;28;19909;-45
2022/04/07 10:46:46;;;;;;;;;;;;;;;;;;5089450;28;19919;-47
2022/04/07 10:49:12;;;;;;;;;;;;;;;;;;5094108;28;19908;-44
2022/04/07 10:51:39;;;;;;;;;;;;;;;;;;5095687;28;19919;-41
2022/04/07 10:54:05;;;;;;;;;;;;;;;;;;5095925;28;19908;-50
2022/04/07 10:56:33;;;;;;;;;;;;;;;;;;5093241;28;19912;-52
2022/04/07 10:58:59;;;;;;;;;;;;;;;;;;5092485;28;20351;-53
2022/04/07 11:01:25;;;;;;;;;;;;;;;;;;5093932;28;20032;-46
2022/04/07 11:03:52;;;;;;;;;;;;;;;;;;5093399;28;19997;-39
2022/04/07 11:06:18;;;;;;;;;;;;;;;;;;5091718;28;19961;-41
2022/04/07 11:08:45;;;;;;;;;;;;;;;;;;5090378;28;19908;-55
2022/04/07 11:11:11;;;;;;;;;;;;;;;;;;5092759;28;19999;-48
2022/04/07 11:13:38;;;;;;;;;;;;;;;;;;5094008;28;20305;-53
2022/04/07 11:16:04;;;;;;;;;;;;;;;;;;5093343;28;20397;-54
2022/04/07 11:18:31;;;;;;;;;;;;;;;;;;5094976;28;20355;-43
2022/04/07 11:20:57;;;;;;;;;;;;;;;;;;5095415;28;20354;-56
2022/04/07 11:23:24;;;;;;;;;;;;;;;;;;5095201;28;19931;-44
2022/04/07 11:25:50;;;;;;;;;;;;;;;;;;5095275;28;20047;-43
2022/04/07 11:28:17;;;;;;;;;;;;;;;;;;5094665;28;19908;-42
2022/04/07 11:30:44;;;;;;;;;;;;;;;;;;5094630;28;19909;-54
2022/04/07 11:33:10;;;;;;;;;;;;;;;;;;5094891;28;19919;-47
2022/04/07 11:35:37;;;;;;;;;;;;;;;;;;5095023;28;19957;-52
2022/04/07 11:38:03;;;;;;;;;;;;;;;;;;5095473;28;19915;-51
2022/04/07 11:40:30;;;;;;;;;;;;;;;;;;5095236;28;19914;-53
2022/04/07 11:42:56;;;;;;;;;;;;;;;;;;5090197;28;20383;-45
2022/04/07 11:45:22;;;;;;;;;;;;;;;;;;5090908;28;19908;-51
2022/04/07 11:47:49;;;;;;;;;;;;;;;;;;5093309;28;19908;-58
2022/04/07 11:50:15;;;;;;;;;;;;;;;;;;5095253;28;19908;-51
2022/04/07 11:52:42;;;;;;;;;;;;;;;;;;5092548;28;19923;-56
2022/04/07 11:55:09;;;;;;;;;;;;;;;;;;5089926;28;19969;-44
2022/04/07 11:57:35;;;;;;;;;;;;;;;;;;5094804;28;19916;-49
2022/04/07 12:00:02;;;;;;;;;;;;;;;;;;5094136;28;20354;-54
2022/04/07 12:02:29;;;;;;;;;;;;;;;;;;5094730;28;19915;-51
2022/04/07 12:04:55;;;;;;;;;;;;;;;;;;5094471;28;19924;-51
2022/04/07 12:07:22;;;;;;;;;;;;;;;;;;5094215;28;20354;-41
2022/04/07 12:09:49;;;;;;;;;;;;;;;;;;5094232;28;20385;-47
2022/04/07 12:12:16;;;;;;;;;;;;;;;;;;5094290;28;20388;-48
2022/04/07 12:14:43;;;;;;;;;;;;;;;;;;5094638;28;19908;-51
2022/04/07 12:17:13;;;;;;;;;;;;;;;;;;5093500;28;20434;-45
2022/04/07 12:19:39;;;;;;;;;;;;;;;;;;5094142;28;19909;-44
2022/04/07 12:22:06;;;;;;;;;;;;;;;;;;5093191;28;19904;-40
2022/04/07 12:24:32;;;;;;;;;;;;;;;;;;5093990;28;19908;-47
2022/04/07 12:26:59;;;;;;;;;;;;;;;;;;5094297;28;19908;-44
2022/04/07 12:29:25;;;;;;;;;;;;;;;;;;5094258;28;19905;-41
2022/04/07 12:31:52;;;;;;;;;;;;;;;;;;5094051;28;19912;-40
2022/04/07 12:34:19;;;;;;;;;;;;;;;;;;5094091;28;20341;-45
2022/04/07 12:36:45;;;;;;;;;;;;;;;;;;5076276;28;19912;-46
2022/04/07 12:39:12;;;;;;;;;;;;;;;;;;5071856;28;19913;-52
2022/04/07 12:41:38;;;;;;;;;;;;;;;;;;5073618;28;20244;-47
2022/04/07 12:44:05;;;;;;;;;;;;;;;;;;5072935;28;19935;-45
2022/04/07 12:46:31;;;;;;;;;;;;;;;;;;5073294;28;19956;-50
2022/04/07 12:48:58;;;;;;;;;;;;;;;;;;5073435;28;19908;-43
2022/04/07 12:51:24;;;;;;;;;;;;;;;;;;5072339;28;19959;-45
2022/04/07 12:53:52;;;;;;;;;;;;;;;;;;5081384;28;19916;-43
2022/04/07 12:56:19;;;;;;;;;;;;;;;;;;5090748;28;19961;-41
2022/04/07 12:58:45;;;;;;;;;;;;;;;;;;5094221;28;19930;-47
2022/04/07 13:01:12;;;;;;;;;;;;;;;;;;5091675;28;20011;-48
2022/04/07 13:03:38;;;;;;;;;;;;;;;;;;5089285;28;19927;-48
2022/04/07 13:06:11;;;;;;;;;;;;;;;;;;5090060;28;20393;-47
2022/04/07 13:08:38;;;;;;;;;;;;;;;;;;5091972;28;19973;-56
2022/04/07 13:11:04;;;;;;;;;;;;;;;;;;5092307;28;20016;-55
2022/04/07 13:13:30;;;;;;;;;;;;;;;;;;5087534;28;19919;-55
2022/04/07 13:15:57;;;;;;;;;;;;;;;;;;5091917;28;19962;-50
2022/04/07 13:18:23;;;;;;;;;;;;;;;;;;5091216;28;20423;-55
2022/04/07 13:20:50;;;;;;;;;;;;;;;;;;5091362;28;19908;-47
2022/04/07 13:23:16;;;;;;;;;;;;;;;;;;5088055;28;20004;-49
2022/04/07 13:25:43;;;;;;;;;;;;;;;;;;5093201;28;19916;-48
2022/04/07 13:28:09;;;;;;;;;;;;;;;;;;5093330;28;19960;-51
2022/04/07 13:30:36;;;;;;;;;;;;;;;;;;5093190;28;19908;-48
2022/04/07 13:33:02;;;;;;;;;;;;;;;;;;5092930;28;19916;-50
2022/04/07 13:35:29;;;;;;;;;;;;;;;;;;5092612;28;19958;-47
2022/04/07 13:37:58;;;;;;;;;;;;;;;;;;5093275;28;19908;-48
2022/04/07 13:40:26;;;;;;;;;;;;;;;;;;5093078;28;20275;-49
2022/04/07 13:42:52;;;;;;;;;;;;;;;;;;5093371;28;19915;-52
2022/04/07 13:45:19;;;;;;;;;;;;;;;;;;5093215;28;19908;-43
2022/04/07 13:47:45;;;;;;;;;;;;;;;;;;5093439;28;19908;-45
2022/04/07 13:50:15;;;;;;;;;;;;;;;;;;5093248;28;20255;-53
2022/04/07 13:52:41;;;;;;;;;;;;;;;;;;5092522;28;19917;-50
2022/04/07 13:55:08;;;;;;;;;;;;;;;;;;5093197;28;19954;-55
2022/04/07 13:57:34;;;;;;;;;;;;;;;;;;5093149;28;19908;-57
2022/04/07 14:00:01;;;;;;;;;;;;;;;;;;5093204;28;19980;-53
2022/04/07 14:02:29;;;;;;;;;;;;;;;;;;5093239;28;19980;-57
2022/04/07 14:04:56;;;;;;;;;;;;;;;;;;5092820;28;19927;-53
2022/04/07 14:07:22;;;;;;;;;;;;;;;;;;5092816;28;19935;-54
2022/04/07 14:09:49;;;;;;;;;;;;;;;;;;5093006;28;20362;-56
2022/04/07 14:12:15;;;;;;;;;;;;;;;;;;5092952;28;19939;-55
2022/04/07 14:14:45;;;;;;;;;;;;;;;;;;5093045;28;19908;-57
2022/04/07 14:17:11;;;;;;;;;;;;;;;;;;5092724;28;19912;-56
2022/04/07 14:19:38;;;;;;;;;;;;;;;;;;5092840;28;19995;-49
2022/04/07 14:22:04;;;;;;;;;;;;;;;;;;5093028;28;19915;-56
2022/04/07 14:24:31;;;;;;;;;;;;;;;;;;5096761;28;20312;-54
2022/04/07 14:26:57;;;;;;;;;;;;;;;;;;5096576;28;20339;-44
2022/04/07 14:29:24;;;;;;;;;;;;;;;;;;5096504;28;19998;-54
2022/04/07 14:31:51;;;;;;;;;;;;;;;;;;5096515;28;19916;-53
2022/04/07 14:34:17;;;;;;;;;;;;;;;;;;5096440;28;19912;-56
2022/04/07 14:36:45;;;;;;;;;;;;;;;;;;5095348;28;19955;-52
2022/04/07 14:39:12;;;;;;;;;;;;;;;;;;5096272;28;19912;-55
2022/04/07 14:41:38;;;;;;;;;;;;;;;;;;5095287;28;19955;-50
2022/04/07 14:44:04;;;;;;;;;;;;;;;;;;5096330;28;19915;-48
2022/04/07 14:46:31;;;;;;;;;;;;;;;;;;5096412;28;20026;-56
2022/04/07 14:48:57;;;;;;;;;;;;;;;;;;5096227;28;19920;-50
2022/04/07 14:51:24;;;;;;;;;;;;;;;;;;5096095;28;19923;-56
2022/04/07 14:53:50;;;;;;;;;;;;;;;;;;5096455;28;19912;-56
2022/04/07 14:56:17;;;;;;;;;;;;;;;;;;5095935;28;19935;-57
2022/04/07 14:58:45;;;;;;;;;;;;;;;;;;5095989;28;19987;-56
2022/04/07 15:01:11;;;;;;;;;;;;;;;;;;5095897;28;20270;-55
2022/04/07 15:03:38;;;;;;;;;;;;;;;;;;5096171;28;20015;-55
2022/04/07 15:06:04;;;;;;;;;;;;;;;;;;5096182;28;19912;-57
2022/04/07 15:08:31;;;;;;;;;;;;;;;;;;5095937;28;19908;-56
2022/04/07 15:10:57;;;;;;;;;;;;;;;;;;5095908;28;19912;-56
2022/04/07 15:13:23;;;;;;;;;;;;;;;;;;5095831;28;19915;-49
2022/04/07 15:15:50;;;;;;;;;;;;;;;;;;5095873;28;20427;-55
2022/04/07 15:18:16;;;;;;;;;;;;;;;;;;5095641;28;19915;-56
2022/04/07 15:20:44;;;;;;;;;;;;;;;;;;5095902;28;19908;-55
2022/04/07 15:23:10;;;;;;;;;;;;;;;;;;5095475;28;19914;-54
2022/04/07 15:25:38;;;;;;;;;;;;;;;;;;5095621;28;20009;-49
2022/04/07 15:28:04;;;;;;;;;;;;;;;;;;5094419;28;19908;-57
2022/04/07 15:30:31;;;;;;;;;;;;;;;;;;5095533;28;20397;-55
2022/04/07 15:32:59;;;;;;;;;;;;;;;;;;5095439;28;19927;-51
2022/04/07 15:35:28;;;;;;;;;;;;;;;;;;5094078;28;19914;-53
2022/04/07 15:37:54;;;;;;;;;;;;;;;;;;5095454;28;20287;-51
2022/04/07 15:40:21;;;;;;;;;;;;;;;;;;5095307;28;19908;-52
2022/04/07 15:42:47;;;;;;;;;;;;;;;;;;5095316;28;19908;-56
2022/04/07 15:45:14;;;;;;;;;;;;;;;;;;5095101;28;19908;-55
2022/04/07 15:47:42;;;;;;;;;;;;;;;;;;5095316;28;19943;-58
2022/04/07 15:50:08;;;;;;;;;;;;;;;;;;5095073;28;19998;-53
2022/04/07 15:52:35;;;;;;;;;;;;;;;;;;5095235;28;19916;-45
2022/04/07 15:55:01;;;;;;;;;;;;;;;;;;5095153;28;19908;-49
2022/04/07 15:57:28;;;;;;;;;;;;;;;;;;5094882;28;19912;-57
2022/04/07 15:59:54;;;;;;;;;;;;;;;;;;5095028;28;19961;-51
2022/04/07 16:02:21;;;;;;;;;;;;;;;;;;5095066;28;19915;-55
2022/04/07 16:04:47;;;;;;;;;;;;;;;;;;5093234;28;19939;-43
2022/04/07 16:07:15;;;;;;;;;;;;;;;;;;5094811;28;19915;-49
2022/04/07 16:09:42;;;;;;;;;;;;;;;;;;5094655;28;20400;-56
2022/04/07 16:12:08;;;;;;;;;;;;;;;;;;5094762;28;20278;-47
2022/04/07 16:14:35;;;;;;;;;;;;;;;;;;5094819;28;19943;-52
2022/04/07 16:17:01;;;;;;;;;;;;;;;;;;5094485;28;20351;-52
2022/04/07 16:19:28;;;;;;;;;;;;;;;;;;5094425;28;19916;-45
2022/04/07 16:21:54;;;;;;;;;;;;;;;;;;5094493;28;20393;-43
2022/04/07 16:24:21;;;;;;;;;;;;;;;;;;5092312;28;20431;-54
2022/04/07 16:26:47;;;;;;;;;;;;;;;;;;5094324;28;19977;-49
2022/04/07 16:29:14;;;;;;;;;;;;;;;;;;5094381;28;19957;-49
2022/04/07 16:31:40;;;;;;;;;;;;;;;;;;5094334;28;19958;-50
2022/04/07 16:34:09;;;;;;;;;;;;;;;;;;5094158;28;19962;-55
2022/04/07 16:36:35;;;;;;;;;;;;;;;;;;5094228;28;19915;-49
2022/04/07 16:39:02;;;;;;;;;;;;;;;;;;5094227;28;19987;-52
2022/04/07 16:41:28;;;;;;;;;;;;;;;;;;5093938;28;19908;-54